sensor_id;sensor_type;location;lat;lon;timestamp;pressure;altitude;pressure_sealevel;temperature;humidity
23253;BME280;11795;47.054;15.408;2023-04-08T00:00:00;97300;;;7.8;52.5
23253;BME280;11795;47.054;15.408;2023-04-08T00:02:00;97300;;;8.0;52.2
23253;BME280;11795;47.054;15.408;2023-04-08T00:04:01;97300;;;7.8;52.5
23253;BME280;11795;47.054;15.408;2023-04-08T00:06:02;97300;;;7.8;52.7
23253;BME280;11795;47.054;15.408;2023-04-08T00:08:00;97300;;;7.9;52.3
23253;BME280;11795;47.054;15.408;2023-04-08T00:10:00;97300;;;7.8;52.6
23253;BME280;11795;47.054;15.408;2023-04-08T00:12:01;97300;;;8.0;52.3
23253;BME280;11795;47.054;15.408;2023-04-08T00:14:02;97290;;;7.9;52.8
23253;BME280;11795;47.054;15.408;2023-04-08T00:16:02;97300;;;7.8;53.3
23253;BME280;11795;47.054;15.408;2023-04-08T00:18:01;97290;;;7.8;53.1
23253;BME280;11795;47.054;15.408;2023-04-08T00:20:01;97300;;;7.7;53.5
23253;BME280;11795;47.054;15.408;2023-04-08T00:22:01;97290;;;7.9;53.0
23253;BME280;11795;47.054;15.408;2023-04-08T00:24:00;97290;;;7.8;53.2
23253;BME280;11795;47.054;15.408;2023-04-08T00:26:00;97290;;;7.7;53.4
23253;BME280;11795;47.054;15.408;2023-04-08T00:28:00;97290;;;7.8;53.0
23253;BME280;11795;47.054;15.408;2023-04-08T00:30:01;97290;;;7.7;53.4
23253;BME280;11795;47.054;15.408;2023-04-08T00:32:00;97290;;;7.8;53.1
23253;BME280;11795;47.054;15.408;2023-04-08T00:34:00;97290;;;7.7;53.4
23253;BME280;11795;47.054;15.408;2023-04-08T00:36:00;97290;;;7.6;53.7
23253;BME280;11795;47.054;15.408;2023-04-08T00:38:00;97290;;;7.7;53.3
23253;BME280;11795;47.054;15.408;2023-04-08T00:40:00;97290;;;7.6;53.6
23253;BME280;11795;47.054;15.408;2023-04-08T00:42:00;97290;;;7.8;53.1
23253;BME280;11795;47.054;15.408;2023-04-08T00:44:00;97290;;;7.6;53.4
23253;BME280;11795;47.054;15.408;2023-04-08T00:46:00;97290;;;7.6;53.6
23253;BME280;11795;47.054;15.408;2023-04-08T00:48:01;97290;;;7.7;53.2
23253;BME280;11795;47.054;15.408;2023-04-08T00:50:00;97290;;;7.6;53.6
23253;BME280;11795;47.054;15.408;2023-04-08T00:52:00;97290;;;7.8;53.2
23253;BME280;11795;47.054;15.408;2023-04-08T00:54:00;97300;;;7.6;53.8
23253;BME280;11795;47.054;15.408;2023-04-08T00:56:00;97290;;;7.5;53.9
23253;BME280;11795;47.054;15.408;2023-04-08T00:58:00;97290;;;7.7;53.5
23253;BME280;11795;47.054;15.408;2023-04-08T01:00:01;97290;;;7.5;53.8
23253;BME280;11795;47.054;15.408;2023-04-08T01:02:06;97290;;;7.7;53.6
23253;BME280;11795;47.054;15.408;2023-04-08T01:04:05;97290;;;7.6;53.9
23253;BME280;11795;47.054;15.408;2023-04-08T01:06:06;97290;;;7.5;54.1
23253;BME280;11795;47.054;15.408;2023-04-08T01:08:02;97290;;;7.7;53.7
23253;BME280;11795;47.054;15.408;2023-04-08T01:10:02;97290;;;7.5;54.0
23253;BME280;11795;47.054;15.408;2023-04-08T01:12:04;97290;;;7.7;53.7
23253;BME280;11795;47.054;15.408;2023-04-08T01:14:03;97280;;;7.5;54.2
23253;BME280;11795;47.054;15.408;2023-04-08T01:16:00;97280;;;7.5;54.4
23253;BME280;11795;47.054;15.408;2023-04-08T01:18:05;97280;;;7.6;54.3
23253;BME280;11795;47.054;15.408;2023-04-08T01:20:02;97280;;;7.4;54.5
23253;BME280;11795;47.054;15.408;2023-04-08T01:22:06;97290;;;7.7;54.3
23253;BME280;11795;47.054;15.408;2023-04-08T01:24:05;97290;;;7.4;54.7
23253;BME280;11795;47.054;15.408;2023-04-08T01:26:00;97280;;;7.4;54.8
23253;BME280;11795;47.054;15.408;2023-04-08T01:28:04;97280;;;7.5;54.5
23253;BME280;11795;47.054;15.408;2023-04-08T01:30:02;97280;;;7.4;55.0
23253;BME280;11795;47.054;15.408;2023-04-08T01:32:01;97280;;;7.6;54.7
23253;BME280;11795;47.054;15.408;2023-04-08T01:34:01;97270;;;7.4;55.3
23253;BME280;11795;47.054;15.408;2023-04-08T01:36:01;97280;;;7.3;55.4
23253;BME280;11795;47.054;15.408;2023-04-08T01:38:01;97280;;;7.5;54.8
23253;BME280;11795;47.054;15.408;2023-04-08T01:40:01;97280;;;7.4;55.2
23253;BME280;11795;47.054;15.408;2023-04-08T01:42:01;97280;;;7.6;54.7
23253;BME280;11795;47.054;15.408;2023-04-08T01:44:01;97280;;;7.4;55.1
23253;BME280;11795;47.054;15.408;2023-04-08T01:46:00;97280;;;7.3;55.4
23253;BME280;11795;47.054;15.408;2023-04-08T01:48:01;97280;;;7.5;54.9
23253;BME280;11795;47.054;15.408;2023-04-08T01:50:00;97280;;;7.3;55.4
23253;BME280;11795;47.054;15.408;2023-04-08T01:52:01;97270;;;7.5;55.1
23253;BME280;11795;47.054;15.408;2023-04-08T01:54:00;97280;;;7.4;55.3
23253;BME280;11795;47.054;15.408;2023-04-08T01:56:05;97270;;;7.3;55.8
23253;BME280;11795;47.054;15.408;2023-04-08T01:58:02;97280;;;7.3;55.8
23253;BME280;11795;47.054;15.408;2023-04-08T02:00:02;97280;;;7.3;55.9
23253;BME280;11795;47.054;15.408;2023-04-08T02:02:01;97270;;;7.3;56.2
23253;BME280;11795;47.054;15.408;2023-04-08T02:04:02;97270;;;7.3;56.4
23253;BME280;11795;47.054;15.408;2023-04-08T02:06:00;97280;;;7.2;56.6
23253;BME280;11795;47.054;15.408;2023-04-08T02:08:00;97280;;;7.3;56.2
23253;BME280;11795;47.054;15.408;2023-04-08T02:10:00;97280;;;7.2;56.6
23253;BME280;11795;47.054;15.408;2023-04-08T02:12:00;97280;;;7.3;56.4
23253;BME280;11795;47.054;15.408;2023-04-08T02:14:00;97280;;;7.1;57.0
23253;BME280;11795;47.054;15.408;2023-04-08T02:16:03;97280;;;7.2;57.1
23253;BME280;11795;47.054;15.408;2023-04-08T02:18:06;97290;;;7.2;57.1
23253;BME280;11795;47.054;15.408;2023-04-08T02:20:05;97290;;;7.1;57.4
23253;BME280;11795;47.054;15.408;2023-04-08T02:22:04;97290;;;7.3;56.9
23253;BME280;11795;47.054;15.408;2023-04-08T02:24:04;97280;;;7.2;57.1
23253;BME280;11795;47.054;15.408;2023-04-08T02:26:01;97290;;;7.1;57.3
23253;BME280;11795;47.054;15.408;2023-04-08T02:28:02;97290;;;7.3;56.8
23253;BME280;11795;47.054;15.408;2023-04-08T02:30:02;97290;;;7.1;57.3
23253;BME280;11795;47.054;15.408;2023-04-08T02:32:01;97290;;;6.9;58.4
23253;BME280;11795;47.054;15.408;2023-04-08T02:34:01;97300;;;6.7;59.1
23253;BME280;11795;47.054;15.408;2023-04-08T02:36:01;97290;;;6.9;58.6
23253;BME280;11795;47.054;15.408;2023-04-08T02:38:00;97290;;;7.1;58.1
23253;BME280;11795;47.054;15.408;2023-04-08T02:40:00;97290;;;7.0;58.2
23253;BME280;11795;47.054;15.408;2023-04-08T02:42:00;97290;;;7.2;57.9
23253;BME280;11795;47.054;15.408;2023-04-08T02:44:00;97280;;;7.1;58.2
23253;BME280;11795;47.054;15.408;2023-04-08T02:46:02;97290;;;7.0;59.0
23253;BME280;11795;47.054;15.408;2023-04-08T02:48:00;97290;;;7.2;58.4
23253;BME280;11795;47.054;15.408;2023-04-08T02:50:00;97290;;;7.0;59.3
23253;BME280;11795;47.054;15.408;2023-04-08T02:52:00;97280;;;7.2;59.6
23253;BME280;11795;47.054;15.408;2023-04-08T02:54:00;97280;;;7.1;59.8
23253;BME280;11795;47.054;15.408;2023-04-08T02:56:00;97280;;;7.0;60.4
23253;BME280;11795;47.054;15.408;2023-04-08T02:58:00;97280;;;6.9;60.8
23253;BME280;11795;47.054;15.408;2023-04-08T03:00:00;97280;;;6.7;61.7
23253;BME280;11795;47.054;15.408;2023-04-08T03:02:00;97280;;;7.0;61.0
23253;BME280;11795;47.054;15.408;2023-04-08T03:04:00;97280;;;6.9;61.2
23253;BME280;11795;47.054;15.408;2023-04-08T03:06:00;97290;;;6.8;61.4
23253;BME280;11795;47.054;15.408;2023-04-08T03:08:00;97280;;;7.0;60.8
23253;BME280;11795;47.054;15.408;2023-04-08T03:10:01;97280;;;6.9;61.0
23253;BME280;11795;47.054;15.408;2023-04-08T03:12:00;97280;;;7.1;60.6
23253;BME280;11795;47.054;15.408;2023-04-08T03:14:00;97280;;;6.9;61.0
23253;BME280;11795;47.054;15.408;2023-04-08T03:16:00;97290;;;6.9;61.2
23253;BME280;11795;47.054;15.408;2023-04-08T03:18:00;97280;;;7.0;60.6
23253;BME280;11795;47.054;15.408;2023-04-08T03:20:00;97290;;;6.9;61.0
23253;BME280;11795;47.054;15.408;2023-04-08T03:22:00;97280;;;7.1;60.6
23253;BME280;11795;47.054;15.408;2023-04-08T03:24:00;97290;;;7.0;60.8
23253;BME280;11795;47.054;15.408;2023-04-08T03:26:00;97290;;;6.9;61.1
23253;BME280;11795;47.054;15.408;2023-04-08T03:28:00;97280;;;7.1;61.2
23253;BME280;11795;47.054;15.408;2023-04-08T03:30:00;97290;;;7.0;61.6
23253;BME280;11795;47.054;15.408;2023-04-08T03:32:00;97280;;;7.1;61.6
23253;BME280;11795;47.054;15.408;2023-04-08T03:34:01;97290;;;7.0;61.8
23253;BME280;11795;47.054;15.408;2023-04-08T03:36:00;97290;;;6.9;62.4
23253;BME280;11795;47.054;15.408;2023-04-08T03:38:00;97290;;;7.0;62.2
23253;BME280;11795;47.054;15.408;2023-04-08T03:40:00;97290;;;6.9;62.5
23253;BME280;11795;47.054;15.408;2023-04-08T03:42:02;97290;;;7.1;62.2
23253;BME280;11795;47.054;15.408;2023-04-08T03:44:00;97290;;;6.9;62.2
23253;BME280;11795;47.054;15.408;2023-04-08T03:46:00;97300;;;6.9;62.4
23253;BME280;11795;47.054;15.408;2023-04-08T03:48:00;97310;;;7.1;62.1
23253;BME280;11795;47.054;15.408;2023-04-08T03:50:00;97310;;;6.9;62.6
23253;BME280;11795;47.054;15.408;2023-04-08T03:52:01;97310;;;7.1;62.5
23253;BME280;11795;47.054;15.408;2023-04-08T03:54:00;97300;;;7.0;63.0
23253;BME280;11795;47.054;15.408;2023-04-08T03:56:02;97310;;;6.8;64.0
23253;BME280;11795;47.054;15.408;2023-04-08T03:58:00;97310;;;7.0;63.3
23253;BME280;11795;47.054;15.408;2023-04-08T04:00:00;97310;;;6.9;64.0
23253;BME280;11795;47.054;15.408;2023-04-08T04:02:00;97310;;;7.1;63.7
23253;BME280;11795;47.054;15.408;2023-04-08T04:04:00;97320;;;6.9;64.0
23253;BME280;11795;47.054;15.408;2023-04-08T04:06:00;97320;;;6.9;64.4
23253;BME280;11795;47.054;15.408;2023-04-08T04:08:00;97320;;;7.0;64.3
23253;BME280;11795;47.054;15.408;2023-04-08T04:10:00;97330;;;6.9;64.8
23253;BME280;11795;47.054;15.408;2023-04-08T04:12:00;97330;;;6.9;65.0
23253;BME280;11795;47.054;15.408;2023-04-08T04:14:00;97330;;;6.9;65.1
23253;BME280;11795;47.054;15.408;2023-04-08T04:16:00;97330;;;6.8;65.6
23253;BME280;11795;47.054;15.408;2023-04-08T04:18:00;97330;;;6.9;65.7
23253;BME280;11795;47.054;15.408;2023-04-08T04:20:03;97340;;;6.8;66.4
23253;BME280;11795;47.054;15.408;2023-04-08T04:22:00;97330;;;6.8;66.7
23253;BME280;11795;47.054;15.408;2023-04-08T04:24:00;97330;;;6.7;66.8
23253;BME280;11795;47.054;15.408;2023-04-08T04:26:00;97340;;;6.6;67.4
23253;BME280;11795;47.054;15.408;2023-04-08T04:28:01;97340;;;6.8;66.6
23253;BME280;11795;47.054;15.408;2023-04-08T04:30:00;97340;;;6.7;67.1
23253;BME280;11795;47.054;15.408;2023-04-08T04:32:00;97340;;;6.8;67.0
23253;BME280;11795;47.054;15.408;2023-04-08T04:34:00;97340;;;6.8;67.2
23253;BME280;11795;47.054;15.408;2023-04-08T04:36:00;97340;;;6.7;67.5
23253;BME280;11795;47.054;15.408;2023-04-08T04:38:00;97340;;;6.9;67.1
23253;BME280;11795;47.054;15.408;2023-04-08T04:40:00;97340;;;6.8;68.2
23253;BME280;11795;47.054;15.408;2023-04-08T04:42:00;97350;;;6.8;68.5
23253;BME280;11795;47.054;15.408;2023-04-08T04:44:00;97350;;;6.7;68.8
23253;BME280;11795;47.054;15.408;2023-04-08T04:46:01;97350;;;6.6;69.3
23253;BME280;11795;47.054;15.408;2023-04-08T04:48:00;97360;;;6.8;69.3
23253;BME280;11795;47.054;15.408;2023-04-08T04:50:01;97360;;;6.7;69.4
23253;BME280;11795;47.054;15.408;2023-04-08T04:52:00;97360;;;6.7;69.5
23253;BME280;11795;47.054;15.408;2023-04-08T04:54:00;97360;;;6.7;69.6
23253;BME280;11795;47.054;15.408;2023-04-08T04:56:00;97370;;;6.6;70.0
23253;BME280;11795;47.054;15.408;2023-04-08T04:58:00;97370;;;6.7;69.8
23253;BME280;11795;47.054;15.408;2023-04-08T05:00:00;97370;;;6.5;70.8
23253;BME280;11795;47.054;15.408;2023-04-08T05:02:00;97370;;;6.6;70.7
23253;BME280;11795;47.054;15.408;2023-04-08T05:04:00;97370;;;6.7;70.6
23253;BME280;11795;47.054;15.408;2023-04-08T05:06:00;97370;;;6.6;71.1
23253;BME280;11795;47.054;15.408;2023-04-08T05:08:00;97380;;;6.8;70.9
23253;BME280;11795;47.054;15.408;2023-04-08T05:10:00;97380;;;6.7;71.7
23253;BME280;11795;47.054;15.408;2023-04-08T05:12:00;97380;;;6.7;71.9
23253;BME280;11795;47.054;15.408;2023-04-08T05:14:00;97390;;;6.7;71.8
23253;BME280;11795;47.054;15.408;2023-04-08T05:16:01;97390;;;6.6;72.1
23253;BME280;11795;47.054;15.408;2023-04-08T05:18:00;97400;;;6.7;72.2
23253;BME280;11795;47.054;15.408;2023-04-08T05:20:00;97390;;;6.5;72.9
23253;BME280;11795;47.054;15.408;2023-04-08T05:22:00;97390;;;6.7;72.6
23253;BME280;11795;47.054;15.408;2023-04-08T05:24:00;97390;;;6.5;73.0
23253;BME280;11795;47.054;15.408;2023-04-08T05:26:00;97400;;;6.4;74.1
23253;BME280;11795;47.054;15.408;2023-04-08T05:28:00;97400;;;6.3;74.3
23253;BME280;11795;47.054;15.408;2023-04-08T05:30:00;97400;;;6.2;74.8
23253;BME280;11795;47.054;15.408;2023-04-08T05:32:00;97390;;;6.1;75.7
23253;BME280;11795;47.054;15.408;2023-04-08T05:34:00;97400;;;6.1;75.6
23253;BME280;11795;47.054;15.408;2023-04-08T05:36:00;97410;;;6.1;76.1
23253;BME280;11795;47.054;15.408;2023-04-08T05:38:00;97410;;;6.1;76.1
23253;BME280;11795;47.054;15.408;2023-04-08T05:40:01;97410;;;6.0;76.3
23253;BME280;11795;47.054;15.408;2023-04-08T05:42:00;97410;;;6.1;76.0
23253;BME280;11795;47.054;15.408;2023-04-08T05:44:00;97410;;;6.2;76.0
23253;BME280;11795;47.054;15.408;2023-04-08T05:46:05;97410;;;6.1;76.3
23253;BME280;11795;47.054;15.408;2023-04-08T05:48:00;97410;;;6.4;75.7
23253;BME280;11795;47.054;15.408;2023-04-08T05:50:00;97410;;;6.3;76.1
23253;BME280;11795;47.054;15.408;2023-04-08T05:52:00;97420;;;6.3;75.8
23253;BME280;11795;47.054;15.408;2023-04-08T05:54:00;97420;;;6.4;74.5
23253;BME280;11795;47.054;15.408;2023-04-08T05:56:00;97420;;;6.3;74.9
23253;BME280;11795;47.054;15.408;2023-04-08T05:58:00;97420;;;6.4;74.7
23253;BME280;11795;47.054;15.408;2023-04-08T06:00:00;97420;;;6.3;75.1
23253;BME280;11795;47.054;15.408;2023-04-08T06:02:00;97430;;;6.3;75.4
23253;BME280;11795;47.054;15.408;2023-04-08T06:04:00;97430;;;6.3;75.4
23253;BME280;11795;47.054;15.408;2023-04-08T06:06:00;97430;;;6.2;76.0
23253;BME280;11795;47.054;15.408;2023-04-08T06:08:00;97430;;;6.5;75.3
23253;BME280;11795;47.054;15.408;2023-04-08T06:10:01;97430;;;6.3;76.0
23253;BME280;11795;47.054;15.408;2023-04-08T06:12:00;97430;;;6.4;75.8
23253;BME280;11795;47.054;15.408;2023-04-08T06:14:00;97430;;;6.4;75.5
23253;BME280;11795;47.054;15.408;2023-04-08T06:16:09;97430;;;6.3;76.0
23253;BME280;11795;47.054;15.408;2023-04-08T06:18:00;97430;;;6.5;75.4
23253;BME280;11795;47.054;15.408;2023-04-08T06:20:00;97440;;;6.3;75.7
23253;BME280;11795;47.054;15.408;2023-04-08T06:22:00;97440;;;6.3;75.8
23253;BME280;11795;47.054;15.408;2023-04-08T06:24:00;97440;;;6.3;75.7
23253;BME280;11795;47.054;15.408;2023-04-08T06:26:00;97440;;;6.2;75.8
23253;BME280;11795;47.054;15.408;2023-04-08T06:28:00;97440;;;6.4;74.5
23253;BME280;11795;47.054;15.408;2023-04-08T06:30:00;97440;;;6.2;75.0
23253;BME280;11795;47.054;15.408;2023-04-08T06:32:00;97440;;;6.2;75.3
23253;BME280;11795;47.054;15.408;2023-04-08T06:34:00;97450;;;6.2;75.4
23253;BME280;11795;47.054;15.408;2023-04-08T06:36:01;97450;;;6.1;75.6
23253;BME280;11795;47.054;15.408;2023-04-08T06:38:00;97450;;;6.2;75.2
23253;BME280;11795;47.054;15.408;2023-04-08T06:40:00;97450;;;6.1;75.7
23253;BME280;11795;47.054;15.408;2023-04-08T06:42:00;97460;;;6.1;75.8
23253;BME280;11795;47.054;15.408;2023-04-08T06:44:03;97460;;;6.1;75.7
23253;BME280;11795;47.054;15.408;2023-04-08T06:46:00;97460;;;6.0;76.1
23253;BME280;11795;47.054;15.408;2023-04-08T06:48:00;97460;;;6.2;75.4
23253;BME280;11795;47.054;15.408;2023-04-08T06:50:00;97460;;;6.1;76.0
23253;BME280;11795;47.054;15.408;2023-04-08T06:52:00;97470;;;6.1;76.1
23253;BME280;11795;47.054;15.408;2023-04-08T06:54:01;97470;;;6.0;76.3
23253;BME280;11795;47.054;15.408;2023-04-08T06:56:01;97470;;;5.9;76.7
23253;BME280;11795;47.054;15.408;2023-04-08T06:58:01;97470;;;5.9;76.4
23253;BME280;11795;47.054;15.408;2023-04-08T07:00:00;97470;;;5.6;77.7
23253;BME280;11795;47.054;15.408;2023-04-08T07:02:00;97470;;;5.5;78.7
23253;BME280;11795;47.054;15.408;2023-04-08T07:04:01;97480;;;5.7;78.3
23253;BME280;11795;47.054;15.408;2023-04-08T07:06:02;97480;;;5.6;78.3
23253;BME280;11795;47.054;15.408;2023-04-08T07:08:00;97480;;;5.8;77.8
23253;BME280;11795;47.054;15.408;2023-04-08T07:10:00;97480;;;5.7;78.2
23253;BME280;11795;47.054;15.408;2023-04-08T07:12:00;97480;;;5.8;78.4
23253;BME280;11795;47.054;15.408;2023-04-08T07:14:00;97480;;;5.8;78.2
23253;BME280;11795;47.054;15.408;2023-04-08T07:16:00;97490;;;5.8;78.8
23253;BME280;11795;47.054;15.408;2023-04-08T07:18:00;97490;;;6.0;78.1
23253;BME280;11795;47.054;15.408;2023-04-08T07:20:00;97490;;;5.9;78.4
23253;BME280;11795;47.054;15.408;2023-04-08T07:22:00;97490;;;5.8;78.7
23253;BME280;11795;47.054;15.408;2023-04-08T07:24:00;97490;;;5.9;78.3
23253;BME280;11795;47.054;15.408;2023-04-08T07:26:01;97490;;;5.8;78.8
23253;BME280;11795;47.054;15.408;2023-04-08T07:28:00;97490;;;6.0;78.2
23253;BME280;11795;47.054;15.408;2023-04-08T07:30:00;97500;;;5.9;78.4
23253;BME280;11795;47.054;15.408;2023-04-08T07:32:00;97500;;;5.9;79.0
23253;BME280;11795;47.054;15.408;2023-04-08T07:34:01;97500;;;6.0;78.6
23253;BME280;11795;47.054;15.408;2023-04-08T07:36:00;97500;;;5.9;79.1
23253;BME280;11795;47.054;15.408;2023-04-08T07:38:00;97510;;;6.1;78.3
23253;BME280;11795;47.054;15.408;2023-04-08T07:40:01;97510;;;6.0;79.9
23253;BME280;11795;47.054;15.408;2023-04-08T07:42:00;97510;;;6.1;79.4
23253;BME280;11795;47.054;15.408;2023-04-08T07:44:01;97520;;;6.1;78.4
23253;BME280;11795;47.054;15.408;2023-04-08T07:46:02;97520;;;6.0;78.7
23253;BME280;11795;47.054;15.408;2023-04-08T07:48:00;97520;;;6.1;78.1
23253;BME280;11795;47.054;15.408;2023-04-08T07:50:00;97520;;;6.0;78.4
23253;BME280;11795;47.054;15.408;2023-04-08T07:52:00;97530;;;5.9;78.7
23253;BME280;11795;47.054;15.408;2023-04-08T07:54:00;97530;;;6.0;78.3
23253;BME280;11795;47.054;15.408;2023-04-08T07:56:01;97530;;;5.8;78.7
23253;BME280;11795;47.054;15.408;2023-04-08T07:58:00;97530;;;6.0;78.4
23253;BME280;11795;47.054;15.408;2023-04-08T08:00:00;97530;;;5.8;79.2
23253;BME280;11795;47.054;15.408;2023-04-08T08:02:00;97530;;;5.7;79.6
23253;BME280;11795;47.054;15.408;2023-04-08T08:04:01;97540;;;5.8;79.1
23253;BME280;11795;47.054;15.408;2023-04-08T08:06:01;97550;;;5.8;78.8
23253;BME280;11795;47.054;15.408;2023-04-08T08:08:01;97550;;;5.7;78.9
23253;BME280;11795;47.054;15.408;2023-04-08T08:10:00;97550;;;5.6;78.9
23253;BME280;11795;47.054;15.408;2023-04-08T08:12:00;97550;;;5.6;78.8
23253;BME280;11795;47.054;15.408;2023-04-08T08:14:00;97550;;;5.6;78.6
23253;BME280;11795;47.054;15.408;2023-04-08T08:16:00;97550;;;5.6;79.1
23253;BME280;11795;47.054;15.408;2023-04-08T08:18:00;97550;;;5.7;78.8
23253;BME280;11795;47.054;15.408;2023-04-08T08:20:00;97550;;;5.6;79.1
23253;BME280;11795;47.054;15.408;2023-04-08T08:22:00;97550;;;5.5;79.2
23253;BME280;11795;47.054;15.408;2023-04-08T08:24:00;97550;;;5.7;78.6
23253;BME280;11795;47.054;15.408;2023-04-08T08:26:01;97550;;;5.6;78.4
23253;BME280;11795;47.054;15.408;2023-04-08T08:28:00;97550;;;5.8;78.2
23253;BME280;11795;47.054;15.408;2023-04-08T08:30:00;97550;;;5.7;78.6
23253;BME280;11795;47.054;15.408;2023-04-08T08:32:01;97560;;;5.6;78.8
23253;BME280;11795;47.054;15.408;2023-04-08T08:34:00;97560;;;5.8;78.3
23253;BME280;11795;47.054;15.408;2023-04-08T08:36:00;97560;;;5.8;78.7
23253;BME280;11795;47.054;15.408;2023-04-08T08:38:00;97560;;;6.0;77.8
23253;BME280;11795;47.054;15.408;2023-04-08T08:40:00;97570;;;5.9;77.8
23253;BME280;11795;47.054;15.408;2023-04-08T08:42:00;97570;;;5.8;77.8
23253;BME280;11795;47.054;15.408;2023-04-08T08:44:01;97570;;;5.9;77.0
23253;BME280;11795;47.054;15.408;2023-04-08T08:46:00;97570;;;5.9;77.1
23253;BME280;11795;47.054;15.408;2023-04-08T08:48:00;97570;;;6.0;76.5
23253;BME280;11795;47.054;15.408;2023-04-08T08:50:01;97570;;;5.9;76.9
23253;BME280;11795;47.054;15.408;2023-04-08T08:52:00;97570;;;6.0;76.9
23253;BME280;11795;47.054;15.408;2023-04-08T08:54:01;97570;;;6.1;76.0
23253;BME280;11795;47.054;15.408;2023-04-08T08:56:00;97570;;;6.0;76.7
23253;BME280;11795;47.054;15.408;2023-04-08T08:58:01;97560;;;6.2;76.2
23253;BME280;11795;47.054;15.408;2023-04-08T09:00:01;97570;;;6.1;76.2
23253;BME280;11795;47.054;15.408;2023-04-08T09:02:00;97580;;;6.0;76.3
23253;BME280;11795;47.054;15.408;2023-04-08T09:04:10;97580;;;6.1;76.0
23253;BME280;11795;47.054;15.408;2023-04-08T09:06:01;97580;;;6.1;76.4
23253;BME280;11795;47.054;15.408;2023-04-08T09:08:00;97580;;;6.2;75.9
23253;BME280;11795;47.054;15.408;2023-04-08T09:10:01;97580;;;6.1;76.2
23253;BME280;11795;47.054;15.408;2023-04-08T09:12:02;97580;;;6.1;76.6
23253;BME280;11795;47.054;15.408;2023-04-08T09:14:00;97590;;;6.3;75.9
23253;BME280;11795;47.054;15.408;2023-04-08T09:16:01;97580;;;6.3;76.2
23253;BME280;11795;47.054;15.408;2023-04-08T09:18:01;97590;;;6.5;75.5
23253;BME280;11795;47.054;15.408;2023-04-08T09:20:04;97590;;;6.4;75.4
23253;BME280;11795;47.054;15.408;2023-04-08T09:22:05;97590;;;6.4;75.2
23253;BME280;11795;47.054;15.408;2023-04-08T09:24:00;97590;;;6.5;74.4
23253;BME280;11795;47.054;15.408;2023-04-08T09:26:06;97590;;;6.4;75.1
23253;BME280;11795;47.054;15.408;2023-04-08T09:28:01;97590;;;6.7;75.0
23253;BME280;11795;47.054;15.408;2023-04-08T09:30:12;97590;;;6.5;74.6
23253;BME280;11795;47.054;15.408;2023-04-08T09:32:00;97590;;;6.5;74.9
23253;BME280;11795;47.054;15.408;2023-04-08T09:34:10;97590;;;6.6;73.9
23253;BME280;11795;47.054;15.408;2023-04-08T09:36:01;97600;;;6.4;74.4
23253;BME280;11795;47.054;15.408;2023-04-08T09:38:01;97600;;;6.7;73.8
23253;BME280;11795;47.054;15.408;2023-04-08T09:40:00;97600;;;6.6;74.1
23253;BME280;11795;47.054;15.408;2023-04-08T09:42:04;97600;;;6.5;74.5
23253;BME280;11795;47.054;15.408;2023-04-08T09:44:02;97600;;;6.7;74.1
23253;BME280;11795;47.054;15.408;2023-04-08T09:46:01;97600;;;6.7;74.4
23253;BME280;11795;47.054;15.408;2023-04-08T09:48:08;97600;;;6.9;74.2
23253;BME280;11795;47.054;15.408;2023-04-08T09:50:01;97600;;;6.8;74.2
23253;BME280;11795;47.054;15.408;2023-04-08T09:52:06;97610;;;6.8;74.8
23253;BME280;11795;47.054;15.408;2023-04-08T09:54:02;97610;;;6.9;74.3
23253;BME280;11795;47.054;15.408;2023-04-08T09:56:06;97610;;;6.8;75.0
23253;BME280;11795;47.054;15.408;2023-04-08T09:58:04;97610;;;7.1;74.6
23253;BME280;11795;47.054;15.408;2023-04-08T10:00:06;97610;;;7.0;75.0
23253;BME280;11795;47.054;15.408;2023-04-08T10:02:04;97610;;;7.0;74.1
23253;BME280;11795;47.054;15.408;2023-04-08T10:04:04;97610;;;6.9;73.3
23253;BME280;11795;47.054;15.408;2023-04-08T10:06:01;97610;;;6.7;74.7
23253;BME280;11795;47.054;15.408;2023-04-08T10:08:00;97610;;;7.0;74.3
23253;BME280;11795;47.054;15.408;2023-04-08T10:10:01;97600;;;6.9;74.6
23253;BME280;11795;47.054;15.408;2023-04-08T10:12:01;97610;;;6.7;74.6
23253;BME280;11795;47.054;15.408;2023-04-08T10:14:01;97600;;;6.9;74.5
23253;BME280;11795;47.054;15.408;2023-04-08T10:16:18;97600;;;6.9;74.0
23253;BME280;11795;47.054;15.408;2023-04-08T10:20:00;97600;;;7.0;74.2
23253;BME280;11795;47.054;15.408;2023-04-08T10:22:00;97600;;;7.0;74.4
23253;BME280;11795;47.054;15.408;2023-04-08T10:24:06;97600;;;7.2;73.9
23253;BME280;11795;47.054;15.408;2023-04-08T10:26:01;97600;;;7.3;73.8
23253;BME280;11795;47.054;15.408;2023-04-08T10:28:01;97600;;;7.4;73.2
23253;BME280;11795;47.054;15.408;2023-04-08T10:30:00;97600;;;7.3;73.6
23253;BME280;11795;47.054;15.408;2023-04-08T10:32:02;97600;;;7.3;74.2
23253;BME280;11795;47.054;15.408;2023-04-08T10:34:14;97600;;;7.4;74.7
23253;BME280;11795;47.054;15.408;2023-04-08T10:36:07;97600;;;7.4;74.1
23253;BME280;11795;47.054;15.408;2023-04-08T10:38:01;97600;;;7.5;72.8
23253;BME280;11795;47.054;15.408;2023-04-08T10:40:00;97600;;;7.4;73.2
23253;BME280;11795;47.054;15.408;2023-04-08T10:42:01;97600;;;7.3;73.3
23253;BME280;11795;47.054;15.408;2023-04-08T10:44:02;97600;;;7.5;72.8
23253;BME280;11795;47.054;15.408;2023-04-08T10:46:01;97600;;;7.4;73.3
23253;BME280;11795;47.054;15.408;2023-04-08T10:48:11;97600;;;7.6;72.3
23253;BME280;11795;47.054;15.408;2023-04-08T10:50:11;97600;;;7.7;72.7
23253;BME280;11795;47.054;15.408;2023-04-08T10:52:05;97600;;;7.7;72.4
23253;BME280;11795;47.054;15.408;2023-04-08T10:54:05;97600;;;7.8;72.4
23253;BME280;11795;47.054;15.408;2023-04-08T10:56:04;97600;;;7.8;72.4
23253;BME280;11795;47.054;15.408;2023-04-08T10:58:09;97590;;;7.7;72.0
23253;BME280;11795;47.054;15.408;2023-04-08T11:00:01;97600;;;7.4;73.9
23253;BME280;11795;47.054;15.408;2023-04-08T11:02:01;97600;;;7.3;74.6
23253;BME280;11795;47.054;15.408;2023-04-08T11:04:00;97600;;;7.5;74.3
23253;BME280;11795;47.054;15.408;2023-04-08T11:06:01;97600;;;7.4;74.5
23253;BME280;11795;47.054;15.408;2023-04-08T11:08:00;97600;;;7.5;72.9
23253;BME280;11795;47.054;15.408;2023-04-08T11:10:02;97600;;;7.2;73.3
23253;BME280;11795;47.054;15.408;2023-04-08T11:12:01;97600;;;7.2;74.4
23253;BME280;11795;47.054;15.408;2023-04-08T11:14:01;97600;;;7.3;74.2
23253;BME280;11795;47.054;15.408;2023-04-08T11:16:03;97600;;;7.3;74.8
23253;BME280;11795;47.054;15.408;2023-04-08T11:18:02;97600;;;7.7;73.7
23253;BME280;11795;47.054;15.408;2023-04-08T11:20:07;97600;;;7.6;74.3
23253;BME280;11795;47.054;15.408;2023-04-08T11:22:01;97600;;;7.6;74.2